Magnolia, Delaware
Current Conditions -  °F | °C
As of 8:58 PM on Monday 24 Nov 2014 (Local Time) from KDOV Reporting Station
Clear Clear  
Wind Chill: 66°   Ceiling: Unl
Heat Index: 66°   Visibility: 10mi
Dew Point: 62°   Wind: 17mph
Humidity: 86%   Direction: 190°S
Pressure: 29.75"   Gusts: NA
Location:  39.07°N, 75.48°W
Report Text: KDOV 250158Z AUTO 19015KT 10SM CLR 19/17 A2975 RMK AO2 SLP077 T01890165
Loading
Personal Weather Stations






























Interactive Weather Map New forecast layout! Learn more

10-Day Weather Forecast

Advertisements
Track Severe Weather on mobile